Time;durP1;ratioP1;P1;durP2;ratioP2;P2;SDS_P1;SDS_P2;PMS_P1;PMS_P2;Temp;Humidity;BMP_temperature;BMP_pressure;BME280_temperature;BME280_humidity;BME280_pressure;Samples;Min_cycle;Max_cycle;Signal;HPM_P1;HPM_P2
2023/03/31 00:00:10;;;;;;;28.70;6.50;;;;;;;;;;5054833;28;20041;-76
2023/03/31 00:02:42;;;;;;;36.00;7.13;;;;;;;;;;5065971;28;20048;-76
2023/03/31 00:05:08;;;;;;;33.20;7.10;;;;;;;;;;5074849;28;20115;-77
2023/03/31 00:07:36;;;;;;;33.95;7.30;;;;;;;;;;5074960;28;20135;-77
2023/03/31 00:10:06;;;;;;;31.70;6.32;;;;;;;;;;5074519;28;20061;-76
2023/03/31 00:12:32;;;;;;;32.75;7.03;;;;;;;;;;5070771;28;20041;-76
2023/03/31 00:14:58;;;;;;;29.65;6.25;;;;;;;;;;5054589;28;20041;-76
2023/03/31 00:17:25;;;;;;;30.88;6.18;;;;;;;;;;5056182;28;20041;-76
2023/03/31 00:19:51;;;;;;;31.20;6.22;;;;;;;;;;5074522;28;20131;-76
2023/03/31 00:22:26;;;;;;;40.47;6.75;;;;;;;;;;5074411;28;20049;-76
2023/03/31 00:24:52;;;;;;;35.20;6.70;;;;;;;;;;5074512;28;20092;-76
2023/03/31 00:27:18;;;;;;;29.05;6.38;;;;;;;;;;5056696;28;20439;-76
2023/03/31 00:29:44;;;;;;;31.90;6.47;;;;;;;;;;5074166;28;20088;-76
2023/03/31 00:32:11;;;;;;;30.00;7.38;;;;;;;;;;5074011;28;20470;-77
2023/03/31 00:34:37;;;;;;;29.65;7.13;;;;;;;;;;5073974;28;20048;-76
2023/03/31 00:37:04;;;;;;;36.25;6.10;;;;;;;;;;5074745;28;20037;-76
2023/03/31 00:39:33;;;;;;;32.63;6.25;;;;;;;;;;5056115;28;20477;-77
2023/03/31 00:42:02;;;;;;;35.42;7.18;;;;;;;;;;5074029;28;20048;-76
2023/03/31 00:44:29;;;;;;;27.88;6.40;;;;;;;;;;5068998;28;20044;-76
2023/03/31 00:47:01;;;;;;;34.22;7.65;;;;;;;;;;5067359;28;20044;-76
2023/03/31 00:49:33;;;;;;;25.77;5.22;;;;;;;;;;5058353;28;20162;-76
2023/03/31 00:52:06;;;;;;;27.40;6.05;;;;;;;;;;5067044;28;20094;-76
2023/03/31 00:54:32;;;;;;;33.55;6.07;;;;;;;;;;5064979;28;20044;-77
2023/03/31 00:57:02;;;;;;;26.15;6.18;;;;;;;;;;5063742;28;20117;-76
2023/03/31 00:59:30;;;;;;;39.83;6.45;;;;;;;;;;5057951;28;20055;-76
2023/03/31 01:02:01;;;;;;;28.10;6.07;;;;;;;;;;5052971;28;20048;-77
2023/03/31 01:04:29;;;;;;;27.63;5.82;;;;;;;;;;5053869;28;20045;-76
2023/03/31 01:07:18;;;;;;;34.63;6.25;;;;;;;;;;5054836;28;20110;-76
2023/03/31 01:09:46;;;;;;;26.70;4.97;;;;;;;;;;5037695;28;20070;-76
2023/03/31 01:12:13;;;;;;;32.85;6.00;;;;;;;;;;5094191;28;20056;-76
2023/03/31 01:14:39;;;;;;;33.30;6.38;;;;;;;;;;5090872;28;20067;-76
2023/03/31 01:17:08;;;;;;;32.80;5.70;;;;;;;;;;5090353;28;20082;-76
2023/03/31 01:19:52;;;;;;;25.48;4.88;;;;;;;;;;5091570;28;20055;-76
2023/03/31 01:22:29;;;;;;;26.05;5.60;;;;;;;;;;5074157;28;20040;-77
2023/03/31 01:25:05;;;;;;;26.33;5.30;;;;;;;;;;5073287;28;20465;-76
2023/03/31 01:27:34;;;;;;;31.42;6.18;;;;;;;;;;5073551;28;20076;-76
2023/03/31 01:30:18;;;;;;;25.25;5.50;;;;;;;;;;5093133;28;20047;-76
2023/03/31 01:33:13;;;;;;;26.50;5.43;;;;;;;;;;5085072;28;20040;-76
2023/03/31 01:35:39;;;;;;;24.88;5.88;;;;;;;;;;5010770;28;20050;-76
2023/03/31 01:38:24;;;;;;;24.45;5.18;;;;;;;;;;5003872;28;20045;-76
2023/03/31 01:40:59;;;;;;;22.17;6.18;;;;;;;;;;5011448;28;20060;-76
2023/03/31 01:43:42;;;;;;;26.25;5.65;;;;;;;;;;5004177;28;20046;-76
2023/03/31 01:46:11;;;;;;;26.20;5.68;;;;;;;;;;4988091;28;20054;-76
2023/03/31 01:48:38;;;;;;;24.50;5.90;;;;;;;;;;5011208;28;20555;-76
2023/03/31 01:51:09;;;;;;;25.17;5.88;;;;;;;;;;5004868;28;20050;-76
2023/03/31 01:53:43;;;;;;;26.75;5.25;;;;;;;;;;5011354;28;20057;-76
2023/03/31 01:56:28;;;;;;;31.45;5.43;;;;;;;;;;5010421;28;20089;-76
2023/03/31 01:58:58;;;;;;;26.25;6.32;;;;;;;;;;5000808;28;20058;-76
2023/03/31 02:01:42;;;;;;;24.85;5.43;;;;;;;;;;4992725;28;20035;-76
2023/03/31 02:04:16;;;;;;;20.10;4.97;;;;;;;;;;4996860;28;20097;-76
2023/03/31 02:06:45;;;;;;;24.48;5.65;;;;;;;;;;5001383;28;20606;-76
2023/03/31 02:09:14;;;;;;;20.98;4.85;;;;;;;;;;5005922;28;20089;-76
2023/03/31 02:11:41;;;;;;;26.98;5.88;;;;;;;;;;5032651;28;20465;-76
2023/03/31 02:14:09;;;;;;;26.92;5.35;;;;;;;;;;5087392;28;20051;-76
2023/03/31 02:16:40;;;;;;;22.00;4.68;;;;;;;;;;5049631;28;20091;-76
2023/03/31 02:19:08;;;;;;;20.95;4.90;;;;;;;;;;5093562;28;20123;-77
2023/03/31 02:21:36;;;;;;;24.10;5.75;;;;;;;;;;5093802;28;20044;-76
2023/03/31 02:24:05;;;;;;;25.20;5.53;;;;;;;;;;5101092;28;20043;-76
2023/03/31 02:26:35;;;;;;;26.35;5.47;;;;;;;;;;5100480;28;20051;-76
2023/03/31 02:29:01;;;;;;;25.95;5.63;;;;;;;;;;5095939;28;20105;-76
2023/03/31 02:31:37;;;;;;;25.70;5.78;;;;;;;;;;5083531;28;20047;-77
2023/03/31 02:34:03;;;;;;;25.50;5.70;;;;;;;;;;5073328;28;20048;-77
2023/03/31 02:36:29;;;;;;;24.60;4.68;;;;;;;;;;5072995;28;20063;-77
2023/03/31 02:38:58;;;;;;;26.40;4.97;;;;;;;;;;5054975;28;20048;-77
2023/03/31 02:41:24;;;;;;;30.00;5.65;;;;;;;;;;5073060;28;20041;-76
2023/03/31 02:43:50;;;;;;;22.48;5.40;;;;;;;;;;5072790;28;20091;-76
2023/03/31 02:46:16;;;;;;;24.05;5.07;;;;;;;;;;5073198;28;20121;-76
2023/03/31 02:48:47;;;;;;;22.77;5.38;;;;;;;;;;5085729;28;20043;-76
2023/03/31 02:51:13;;;;;;;23.30;4.63;;;;;;;;;;5097569;28;20057;-76
2023/03/31 02:53:51;;;;;;;21.13;5.22;;;;;;;;;;5096521;28;20178;-76
2023/03/31 02:56:23;;;;;;;25.10;4.93;;;;;;;;;;5096691;28;20149;-76
2023/03/31 02:58:52;;;;;;;17.98;4.22;;;;;;;;;;5095967;28;20402;-76
2023/03/31 03:01:36;;;;;;;22.67;4.88;;;;;;;;;;5096951;28;20130;-77
2023/03/31 03:04:20;;;;;;;22.90;4.53;;;;;;;;;;5096465;28;20040;-77
2023/03/31 03:07:05;;;;;;;24.25;5.00;;;;;;;;;;5096751;28;20048;-76
2023/03/31 03:09:31;;;;;;;18.60;4.53;;;;;;;;;;5096253;28;20051;-76
2023/03/31 03:12:01;;;;;;;21.73;5.03;;;;;;;;;;5096458;28;20434;-76
2023/03/31 03:14:40;;;;;;;21.42;4.90;;;;;;;;;;5079719;28;20072;-77
2023/03/31 03:17:25;;;;;;;25.83;5.47;;;;;;;;;;5090961;28;20068;-76
2023/03/31 03:19:54;;;;;;;22.00;5.65;;;;;;;;;;5080908;28;20143;-76
2023/03/31 03:22:21;;;;;;;22.08;4.85;;;;;;;;;;5078333;28;20121;-76
2023/03/31 03:24:47;;;;;;;18.48;4.57;;;;;;;;;;5091184;28;20127;-76
2023/03/31 03:27:13;;;;;;;24.17;4.95;;;;;;;;;;5088312;28;20040;-76
2023/03/31 03:29:40;;;;;;;20.45;5.85;;;;;;;;;;5083517;28;20517;-77
2023/03/31 03:32:06;;;;;;;21.33;4.90;;;;;;;;;;5083751;28;20040;-76
2023/03/31 03:34:32;;;;;;;19.88;5.65;;;;;;;;;;5095988;28;20043;-76
2023/03/31 03:36:58;;;;;;;22.70;4.97;;;;;;;;;;5095693;28;20046;-77
2023/03/31 03:39:24;;;;;;;18.98;4.95;;;;;;;;;;5095608;28;20044;-76
2023/03/31 03:41:50;;;;;;;25.55;4.85;;;;;;;;;;5095619;28;20048;-76
2023/03/31 03:44:17;;;;;;;25.10;4.93;;;;;;;;;;5095074;28;20101;-76
2023/03/31 03:46:43;;;;;;;18.77;4.70;;;;;;;;;;5095395;28;20043;-76
2023/03/31 03:49:09;;;;;;;23.25;5.10;;;;;;;;;;5095666;28;20048;-76
2023/03/31 03:51:35;;;;;;;16.58;4.95;;;;;;;;;;5096024;28;20040;-76
2023/03/31 03:54:01;;;;;;;17.70;4.70;;;;;;;;;;5095202;28;20044;-76
2023/03/31 03:56:27;;;;;;;25.98;5.53;;;;;;;;;;5095794;28;20047;-76
2023/03/31 03:58:53;;;;;;;17.38;4.25;;;;;;;;;;5094714;28;20044;-76
2023/03/31 04:01:20;;;;;;;19.55;5.20;;;;;;;;;;5082150;28;20439;-76
2023/03/31 04:03:46;;;;;;;15.65;5.10;;;;;;;;;;5075352;28;20041;-76
2023/03/31 04:06:12;;;;;;;18.67;4.85;;;;;;;;;;5075375;28;20123;-76
2023/03/31 04:08:38;;;;;;;15.70;5.15;;;;;;;;;;5074890;28;20051;-76
2023/03/31 04:11:09;;;;;;;16.88;4.88;;;;;;;;;;5074630;28;20050;-76
2023/03/31 04:13:35;;;;;;;20.30;5.90;;;;;;;;;;5075095;28;20385;-76
2023/03/31 04:16:01;;;;;;;19.27;5.47;;;;;;;;;;5094715;28;20410;-76
2023/03/31 04:18:27;;;;;;;18.92;5.07;;;;;;;;;;5095824;28;20043;-76
2023/03/31 04:21:02;;;;;;;18.33;5.43;;;;;;;;;;5094712;28;20043;-76
2023/03/31 04:23:29;;;;;;;22.42;6.38;;;;;;;;;;5076620;28;20192;-76
2023/03/31 04:25:55;;;;;;;18.85;6.47;;;;;;;;;;5095108;28;20044;-76
2023/03/31 04:28:21;;;;;;;18.40;6.28;;;;;;;;;;5088584;28;20382;-76
2023/03/31 04:30:47;;;;;;;18.40;6.32;;;;;;;;;;5075284;28;20039;-76
2023/03/31 04:33:14;;;;;;;21.67;6.75;;;;;;;;;;5074665;28;20045;-76
2023/03/31 04:35:51;;;;;;;20.70;6.18;;;;;;;;;;5074447;28;20060;-76
2023/03/31 04:38:18;;;;;;;18.48;6.55;;;;;;;;;;5074714;28;20049;-76
2023/03/31 04:40:48;;;;;;;14.60;6.22;;;;;;;;;;5074325;28;20045;-76
2023/03/31 04:43:15;;;;;;;15.63;6.43;;;;;;;;;;5075161;28;20044;-76
2023/03/31 04:45:41;;;;;;;20.10;6.35;;;;;;;;;;5074778;28;20051;-76
2023/03/31 04:48:07;;;;;;;19.67;6.65;;;;;;;;;;5073988;28;20044;-76
2023/03/31 04:50:33;;;;;;;19.40;6.75;;;;;;;;;;5077587;28;20036;-76
2023/03/31 04:52:59;;;;;;;16.48;6.45;;;;;;;;;;5075928;28;20497;-76
2023/03/31 04:55:26;;;;;;;17.08;7.00;;;;;;;;;;5093963;28;20490;-76
2023/03/31 04:57:52;;;;;;;18.90;7.35;;;;;;;;;;5094830;28;20093;-76
2023/03/31 05:00:18;;;;;;;17.75;7.70;;;;;;;;;;5094880;28;20118;-76
2023/03/31 05:02:44;;;;;;;21.08;8.15;;;;;;;;;;5088924;28;20040;-76
2023/03/31 05:05:11;;;;;;;14.80;7.30;;;;;;;;;;5094177;28;20047;-76
2023/03/31 05:07:37;;;;;;;19.50;7.43;;;;;;;;;;5062629;28;20056;-76
2023/03/31 05:10:03;;;;;;;18.33;8.73;;;;;;;;;;5072849;28;20050;-76
2023/03/31 05:12:29;;;;;;;21.77;7.55;;;;;;;;;;5073545;28;20070;-76
2023/03/31 05:14:55;;;;;;;15.95;7.15;;;;;;;;;;5073822;28;20048;-75
2023/03/31 05:17:21;;;;;;;17.70;7.13;;;;;;;;;;5090259;28;20044;-75
2023/03/31 05:19:48;;;;;;;17.73;7.95;;;;;;;;;;5090683;28;20044;-75
2023/03/31 05:22:19;;;;;;;15.60;7.82;;;;;;;;;;5091105;28;20106;-75
2023/03/31 05:24:45;;;;;;;20.70;8.23;;;;;;;;;;5090821;28;20048;-75
2023/03/31 05:27:11;;;;;;;21.67;7.70;;;;;;;;;;5080944;28;20052;-76
2023/03/31 05:29:40;;;;;;;22.45;8.30;;;;;;;;;;5078333;28;20059;-76
2023/03/31 05:32:06;;;;;;;19.50;8.13;;;;;;;;;;5094953;28;20067;-77
2023/03/31 05:34:32;;;;;;;16.77;8.38;;;;;;;;;;5077242;28;20401;-77
2023/03/31 05:36:58;;;;;;;17.92;7.63;;;;;;;;;;5088881;28;20045;-77
2023/03/31 05:39:25;;;;;;;20.83;8.52;;;;;;;;;;5073707;28;20045;-77
2023/03/31 05:41:53;;;;;;;18.63;7.75;;;;;;;;;;5073457;28;20098;-77
2023/03/31 05:44:20;;;;;;;17.35;8.13;;;;;;;;;;5087125;28;20433;-77
2023/03/31 05:46:46;;;;;;;15.82;7.40;;;;;;;;;;5093044;28;20457;-76
2023/03/31 05:49:14;;;;;;;17.38;7.78;;;;;;;;;;5075459;28;20110;-76
2023/03/31 05:51:40;;;;;;;17.80;7.60;;;;;;;;;;5093205;28;20044;-76
2023/03/31 05:54:06;;;;;;;17.95;8.27;;;;;;;;;;5071279;28;20036;-76
2023/03/31 05:56:33;;;;;;;18.55;7.82;;;;;;;;;;5073211;28;20044;-76
2023/03/31 05:59:00;;;;;;;17.63;7.82;;;;;;;;;;5089069;28;20044;-76
2023/03/31 06:01:26;;;;;;;15.20;7.68;;;;;;;;;;5093161;28;20044;-76
2023/03/31 06:03:52;;;;;;;15.85;8.10;;;;;;;;;;5056320;28;20084;-77
2023/03/31 06:06:20;;;;;;;14.63;7.68;;;;;;;;;;5054516;28;20123;-77
2023/03/31 06:08:49;;;;;;;14.95;7.95;;;;;;;;;;5082270;28;20054;-77
2023/03/31 06:11:20;;;;;;;16.58;7.88;;;;;;;;;;5072358;28;20432;-77
2023/03/31 06:13:46;;;;;;;21.45;8.13;;;;;;;;;;5097795;28;20100;-77
2023/03/31 06:16:12;;;;;;;19.25;7.93;;;;;;;;;;5113692;28;20047;-77
2023/03/31 06:18:39;;;;;;;19.35;7.45;;;;;;;;;;5113087;28;20092;-77
2023/03/31 06:21:05;;;;;;;18.17;8.25;;;;;;;;;;5113435;28;20044;-77
2023/03/31 06:23:31;;;;;;;17.23;7.75;;;;;;;;;;5114847;28;20050;-76
2023/03/31 06:26:02;;;;;;;16.02;7.30;;;;;;;;;;5097183;28;20051;-76
2023/03/31 06:28:28;;;;;;;16.10;7.60;;;;;;;;;;5087471;28;20048;-76
2023/03/31 06:31:05;;;;;;;16.50;7.78;;;;;;;;;;5058707;28;20119;-76
2023/03/31 06:33:31;;;;;;;20.83;8.90;;;;;;;;;;5076568;28;20098;-76
2023/03/31 06:36:00;;;;;;;16.70;8.18;;;;;;;;;;5076239;28;20041;-76
2023/03/31 06:38:26;;;;;;;20.67;8.40;;;;;;;;;;5076417;28;20049;-75
2023/03/31 06:40:52;;;;;;;15.00;7.15;;;;;;;;;;5077892;28;20052;-76
2023/03/31 06:44:04;;;;;;;14.68;7.97;;;;;;;;;;5090870;28;20119;-75
2023/03/31 06:46:29;;;;;;;14.80;7.57;;;;;;;;;;5058398;28;20052;-75
2023/03/31 06:48:55;;;;;;;16.60;7.45;;;;;;;;;;5082341;28;20490;-75
2023/03/31 06:51:22;;;;;;;15.55;7.13;;;;;;;;;;5087008;28;20055;-74
2023/03/31 06:53:48;;;;;;;12.68;7.32;;;;;;;;;;5090797;28;20040;-75
2023/03/31 06:56:14;;;;;;;13.38;7.30;;;;;;;;;;5095311;28;20081;-74
2023/03/31 06:58:40;;;;;;;16.25;7.30;;;;;;;;;;5089305;28;20044;-74
2023/03/31 07:01:06;;;;;;;11.52;5.95;;;;;;;;;;5076383;28;20379;-74
2023/03/31 07:03:32;;;;;;;13.25;5.88;;;;;;;;;;5096468;28;20048;-74
2023/03/31 07:05:59;;;;;;;8.75;5.28;;;;;;;;;;5096070;28;20466;-74
2023/03/31 07:08:25;;;;;;;10.80;5.88;;;;;;;;;;5078923;28;20044;-75
2023/03/31 07:10:56;;;;;;;9.43;5.22;;;;;;;;;;5087303;28;20591;-74
2023/03/31 07:13:22;;;;;;;9.88;5.28;;;;;;;;;;5095130;28;20047;-76
2023/03/31 07:15:48;;;;;;;12.27;4.60;;;;;;;;;;5075965;28;20072;-76
2023/03/31 07:18:15;;;;;;;9.15;5.03;;;;;;;;;;5085175;28;20147;-76
2023/03/31 07:20:41;;;;;;;9.65;5.30;;;;;;;;;;5075273;28;20053;-76
2023/03/31 07:23:07;;;;;;;12.77;5.40;;;;;;;;;;5082804;28;20448;-76
2023/03/31 07:26:08;;;;;;;8.27;5.22;;;;;;;;;;5088778;28;20044;-75
2023/03/31 07:29:11;;;;;;;7.45;4.72;;;;;;;;;;4979922;28;20093;-75
2023/03/31 07:32:44;;;;;;;;;;;;;;;;;;;;;
2023/03/31 07:37:01;;;;;;;8.68;4.85;;;;;;;;;;4958887;29;20114;-77
2023/03/31 07:39:55;;;;;;;10.45;5.25;;;;;;;;;;4935838;29;20065;-77
2023/03/31 07:42:45;;;;;;;10.32;5.38;;;;;;;;;;4935401;29;20119;-76
2023/03/31 07:45:12;;;;;;;9.27;5.22;;;;;;;;;;4908358;29;20055;-77
2023/03/31 07:47:38;;;;;;;9.13;4.50;;;;;;;;;;4936267;29;20083;-76
2023/03/31 07:53:14;;;;;;;7.25;4.57;;;;;;;;;;4927597;29;20544;-75
2023/03/31 07:56:03;;;;;;;9.95;5.10;;;;;;;;;;4935375;29;20048;-75
2023/03/31 07:58:29;;;;;;;10.13;4.70;;;;;;;;;;4922288;29;20048;-75
2023/03/31 08:01:25;;;;;;;;;;;;;;;;;;;;;
2023/03/31 08:04:41;;;;;;;7.57;4.35;;;;;;;;;;4931908;29;20040;-75
2023/03/31 08:07:07;;;;;;;9.82;4.10;;;;;;;;;;4893281;29;20060;-75
2023/03/31 08:09:33;;;;;;;8.48;3.78;;;;;;;;;;4954457;29;20126;-75
2023/03/31 08:11:59;;;;;;;6.30;3.72;;;;;;;;;;4950178;28;20157;-74
2023/03/31 08:14:25;;;;;;;5.60;3.15;;;;;;;;;;4948292;29;20385;-75
2023/03/31 08:16:54;;;;;;;5.35;2.90;;;;;;;;;;4952266;29;20120;-74
2023/03/31 08:19:21;;;;;;;5.53;3.20;;;;;;;;;;4980208;28;20058;-74
2023/03/31 08:21:47;;;;;;;2.83;2.33;;;;;;;;;;4992399;28;20054;-74
2023/03/31 08:24:13;;;;;;;4.82;2.40;;;;;;;;;;4987070;28;20089;-74
2023/03/31 08:26:40;;;;;;;4.10;2.08;;;;;;;;;;4983914;28;20599;-74
2023/03/31 08:29:06;;;;;;;3.33;2.00;;;;;;;;;;4992853;28;20540;-74
2023/03/31 08:31:33;;;;;;;5.05;2.17;;;;;;;;;;4992643;28;20057;-74
2023/03/31 08:33:59;;;;;;;5.47;2.50;;;;;;;;;;4992873;28;20038;-73
2023/03/31 08:36:26;;;;;;;3.83;2.50;;;;;;;;;;4996180;28;20082;-73
2023/03/31 08:38:53;;;;;;;5.18;2.80;;;;;;;;;;5083157;28;20446;-73
2023/03/31 08:41:37;;;;;;;5.30;2.90;;;;;;;;;;5074317;28;20521;-74
2023/03/31 08:44:08;;;;;;;4.68;2.70;;;;;;;;;;5093714;28;20044;-74
2023/03/31 08:46:35;;;;;;;6.47;3.35;;;;;;;;;;5090780;28;20036;-75
2023/03/31 08:49:03;;;;;;;6.65;3.28;;;;;;;;;;5078510;28;20036;-75
2023/03/31 08:51:29;;;;;;;6.15;3.28;;;;;;;;;;5073956;28;20127;-75
2023/03/31 08:53:57;;;;;;;6.13;3.97;;;;;;;;;;5073722;28;20100;-75
2023/03/31 08:56:26;;;;;;;5.90;3.75;;;;;;;;;;5057306;28;20050;-75
2023/03/31 08:58:52;;;;;;;5.53;3.85;;;;;;;;;;5088835;28;20371;-74
2023/03/31 09:01:18;;;;;;;5.22;4.28;;;;;;;;;;5093256;28;20428;-78
2023/03/31 09:16:40;;;;;;;7.43;4.57;;;;;;;;;;5151160;27;20565;-76
2023/03/31 09:19:12;;;;;;;8.10;5.00;;;;;;;;;;5130574;28;20408;-74
2023/03/31 09:21:40;;;;;;;8.65;4.65;;;;;;;;;;5130399;28;20039;-75
2023/03/31 09:24:11;;;;;;;7.85;5.03;;;;;;;;;;5125002;28;20047;-75
2023/03/31 09:26:42;;;;;;;9.70;5.38;;;;;;;;;;5131343;28;20520;-76
2023/03/31 09:29:18;;;;;;;8.75;5.63;;;;;;;;;;5135284;28;20054;-78
2023/03/31 09:31:44;;;;;;;10.27;5.18;;;;;;;;;;5135070;28;20052;-78
2023/03/31 09:34:15;;;;;;;8.00;4.85;;;;;;;;;;5112821;28;20039;-76
2023/03/31 09:36:42;;;;;;;8.50;5.10;;;;;;;;;;5116255;28;20534;-75
2023/03/31 09:39:11;;;;;;;6.00;4.82;;;;;;;;;;5130477;28;20031;-75
2023/03/31 09:41:38;;;;;;;9.35;5.03;;;;;;;;;;5131926;28;20061;-76
2023/03/31 09:44:04;;;;;;;6.47;4.40;;;;;;;;;;5124585;28;20043;-75
2023/03/31 09:46:32;;;;;;;8.50;4.75;;;;;;;;;;5128627;28;20063;-76
2023/03/31 09:48:59;;;;;;;6.20;4.47;;;;;;;;;;5083525;28;20135;-76
2023/03/31 09:51:30;;;;;;;6.90;4.70;;;;;;;;;;5130943;28;20485;-77
2023/03/31 09:54:00;;;;;;;9.45;5.00;;;;;;;;;;5104742;28;20097;-79
2023/03/31 09:56:52;;;;;;;7.88;4.38;;;;;;;;;;5097464;28;20047;-77
2023/03/31 09:59:20;;;;;;;6.55;4.03;;;;;;;;;;5124212;28;20089;-74
2023/03/31 10:01:49;;;;;;;6.65;4.05;;;;;;;;;;5110547;28;20481;-75
2023/03/31 10:04:25;;;;;;;8.52;4.68;;;;;;;;;;5119275;28;20056;-74
2023/03/31 10:06:52;;;;;;;6.13;3.80;;;;;;;;;;5129692;28;20043;-74
2023/03/31 10:09:20;;;;;;;7.13;4.07;;;;;;;;;;5118785;28;20043;-73
2023/03/31 10:12:06;;;;;;;7.45;4.00;;;;;;;;;;5129663;28;20511;-74
2023/03/31 10:14:39;;;;;;;6.15;3.50;;;;;;;;;;5128983;28;20051;-74
2023/03/31 10:17:06;;;;;;;7.20;3.90;;;;;;;;;;5130474;28;20052;-75
2023/03/31 10:19:39;;;;;;;8.65;4.28;;;;;;;;;;5130241;28;20050;-75
2023/03/31 10:22:15;;;;;;;7.97;3.90;;;;;;;;;;5129662;28;20039;-74
2023/03/31 10:24:43;;;;;;;7.38;3.60;;;;;;;;;;5129293;28;20051;-75
2023/03/31 10:27:29;;;;;;;7.47;3.40;;;;;;;;;;5109063;28;20043;-74
2023/03/31 10:29:59;;;;;;;6.00;3.70;;;;;;;;;;5111890;28;20042;-73
2023/03/31 10:32:30;;;;;;;5.10;3.38;;;;;;;;;;5106657;28;20457;-73
2023/03/31 10:34:56;;;;;;;5.63;3.60;;;;;;;;;;5109071;28;20381;-73
2023/03/31 10:37:27;;;;;;;6.43;3.80;;;;;;;;;;5103876;28;20044;-73
2023/03/31 10:40:04;;;;;;;7.22;3.97;;;;;;;;;;5116254;28;20050;-73
2023/03/31 10:42:31;;;;;;;6.47;3.90;;;;;;;;;;5103077;28;20075;-73
2023/03/31 10:45:10;;;;;;;7.75;4.25;;;;;;;;;;5114107;28;20043;-76
2023/03/31 10:47:39;;;;;;;6.80;3.80;;;;;;;;;;5099281;28;20044;-75
2023/03/31 10:50:12;;;;;;;6.43;4.20;;;;;;;;;;5111576;28;20529;-77
2023/03/31 10:52:44;;;;;;;6.63;4.10;;;;;;;;;;5114597;28;20043;-78
2023/03/31 10:55:14;;;;;;;8.05;4.55;;;;;;;;;;5117020;28;20063;-76
2023/03/31 10:57:57;;;;;;;6.55;4.43;;;;;;;;;;5116566;28;20047;-75
2023/03/31 11:00:39;;;;;;;9.63;4.57;;;;;;;;;;5114654;28;20123;-75
2023/03/31 11:03:23;;;;;;;10.52;5.15;;;;;;;;;;5105690;28;20040;-76
2023/03/31 11:05:52;;;;;;;14.32;5.18;;;;;;;;;;5108327;28;20073;-75
2023/03/31 11:08:18;;;;;;;8.15;4.80;;;;;;;;;;5084004;28;20045;-75
2023/03/31 11:10:47;;;;;;;9.70;4.93;;;;;;;;;;5065972;28;20048;-75
2023/03/31 11:13:19;;;;;;;9.95;4.97;;;;;;;;;;5063819;28;20033;-75
2023/03/31 11:16:05;;;;;;;8.98;4.75;;;;;;;;;;5088407;28;20060;-75
2023/03/31 11:18:31;;;;;;;9.73;5.18;;;;;;;;;;5092922;28;20406;-75
2023/03/31 11:21:00;;;;;;;8.30;4.60;;;;;;;;;;5095059;28;20478;-76
2023/03/31 11:23:33;;;;;;;10.55;4.93;;;;;;;;;;5095050;28;20083;-76
2023/03/31 11:26:05;;;;;;;10.10;4.30;;;;;;;;;;5084751;28;20051;-76
2023/03/31 11:28:50;;;;;;;8.07;4.75;;;;;;;;;;5093215;28;20508;-76
2023/03/31 11:31:28;;;;;;;10.35;4.63;;;;;;;;;;5087567;28;20040;-76
2023/03/31 11:34:03;;;;;;;10.32;5.13;;;;;;;;;;5093286;28;20070;-76
2023/03/31 11:36:49;;;;;;;7.10;4.50;;;;;;;;;;5095061;28;20055;-76
2023/03/31 11:39:24;;;;;;;7.00;3.80;;;;;;;;;;5062924;28;20048;-76
2023/03/31 11:41:51;;;;;;;8.60;4.65;;;;;;;;;;5092094;28;20089;-76
2023/03/31 11:44:19;;;;;;;9.23;4.43;;;;;;;;;;5094969;28;20071;-76
2023/03/31 11:46:51;;;;;;;13.02;4.72;;;;;;;;;;5098278;28;20040;-76
2023/03/31 11:49:20;;;;;;;9.25;3.72;;;;;;;;;;5091327;28;20406;-76
2023/03/31 11:51:57;;;;;;;12.82;5.13;;;;;;;;;;5092856;28;20545;-76
2023/03/31 11:54:27;;;;;;;10.07;4.07;;;;;;;;;;5083065;28;20047;-76
2023/03/31 11:56:55;;;;;;;9.20;3.90;;;;;;;;;;5092520;28;20158;-76
2023/03/31 11:59:26;;;;;;;8.57;3.30;;;;;;;;;;5094362;28;20048;-76
2023/03/31 12:02:16;;;;;;;8.32;3.40;;;;;;;;;;5091790;28;20048;-76
2023/03/31 12:04:43;;;;;;;6.43;2.70;;;;;;;;;;5090269;28;20085;-76
2023/03/31 12:07:29;;;;;;;10.38;3.33;;;;;;;;;;5094184;28;20454;-76
2023/03/31 12:10:05;;;;;;;9.77;3.60;;;;;;;;;;5094322;28;20028;-76
2023/03/31 12:12:43;;;;;;;7.88;4.05;;;;;;;;;;5086862;28;20518;-76
2023/03/31 12:15:16;;;;;;;9.20;3.65;;;;;;;;;;5093633;28;20055;-76
2023/03/31 12:17:48;;;;;;;5.95;3.42;;;;;;;;;;5091832;28;20048;-77
2023/03/31 12:20:18;;;;;;;8.85;3.53;;;;;;;;;;5089910;28;20528;-77
2023/03/31 12:22:44;;;;;;;7.78;3.75;;;;;;;;;;5082782;28;20044;-76
2023/03/31 12:25:14;;;;;;;7.82;3.55;;;;;;;;;;5094458;28;20040;-76
2023/03/31 12:27:41;;;;;;;9.90;3.42;;;;;;;;;;5094140;28;20043;-76
2023/03/31 12:30:13;;;;;;;8.15;3.63;;;;;;;;;;5092237;28;20066;-77
2023/03/31 12:32:52;;;;;;;7.88;3.53;;;;;;;;;;5094058;28;20439;-77
2023/03/31 12:35:28;;;;;;;7.43;3.47;;;;;;;;;;5090983;28;20378;-77
2023/03/31 12:37:54;;;;;;;9.38;3.40;;;;;;;;;;5082451;28;20048;-77
2023/03/31 12:40:29;;;;;;;6.30;3.38;;;;;;;;;;5079310;28;20051;-77
2023/03/31 12:42:55;;;;;;;8.85;3.53;;;;;;;;;;5085430;28;20036;-76
2023/03/31 12:45:22;;;;;;;7.80;3.10;;;;;;;;;;5083315;28;20043;-76
2023/03/31 12:48:11;;;;;;;8.80;3.20;;;;;;;;;;5083792;28;20115;-75
2023/03/31 12:50:50;;;;;;;8.13;3.33;;;;;;;;;;5078088;28;20080;-75
2023/03/31 12:53:22;;;;;;;9.13;4.80;;;;;;;;;;5084232;28;20039;-75
2023/03/31 12:55:50;;;;;;;7.57;3.72;;;;;;;;;;5086688;28;20036;-76
2023/03/31 12:58:27;;;;;;;18.73;5.90;;;;;;;;;;5088697;28;20497;-76
2023/03/31 13:01:06;;;;;;;10.75;4.50;;;;;;;;;;5081762;28;20039;-76
2023/03/31 13:03:35;;;;;;;9.48;4.38;;;;;;;;;;5084533;28;20049;-76
2023/03/31 13:06:05;;;;;;;11.07;3.90;;;;;;;;;;5088618;28;20157;-76
2023/03/31 13:08:50;;;;;;;7.05;3.72;;;;;;;;;;5090592;28;20040;-76
2023/03/31 13:11:17;;;;;;;8.30;3.70;;;;;;;;;;5084397;28;20068;-76
2023/03/31 13:14:01;;;;;;;7.97;3.50;;;;;;;;;;5079526;28;20051;-76
2023/03/31 13:16:27;;;;;;;8.00;3.58;;;;;;;;;;5082556;28;20094;-75
2023/03/31 13:18:54;;;;;;;10.90;4.50;;;;;;;;;;5086799;28;20041;-74
2023/03/31 13:21:20;;;;;;;8.07;4.20;;;;;;;;;;5085163;28;20094;-73
2023/03/31 13:23:46;;;;;;;10.45;4.13;;;;;;;;;;5089795;28;20105;-72
2023/03/31 13:26:42;;;;;;;9.45;4.35;;;;;;;;;;5088149;28;20040;-73
2023/03/31 13:29:09;;;;;;;9.02;4.20;;;;;;;;;;5078921;28;20051;-73
2023/03/31 13:31:54;;;;;;;13.25;4.50;;;;;;;;;;5090285;28;20047;-74
2023/03/31 13:34:20;;;;;;;9.18;3.83;;;;;;;;;;5079629;28;20043;-74
2023/03/31 13:36:58;;;;;;;7.07;2.97;;;;;;;;;;5089423;28;20047;-74
2023/03/31 13:39:24;;;;;;;9.32;3.25;;;;;;;;;;5092432;28;20044;-74
2023/03/31 13:41:53;;;;;;;5.72;2.80;;;;;;;;;;5088619;28;20126;-75
2023/03/31 13:44:37;;;;;;;7.05;2.83;;;;;;;;;;5089171;28;20036;-75
2023/03/31 13:47:24;;;;;;;8.35;3.35;;;;;;;;;;5084615;28;20222;-76
2023/03/31 13:49:53;;;;;;;7.20;3.20;;;;;;;;;;5079114;28;20052;-75
2023/03/31 13:52:23;;;;;;;6.80;2.50;;;;;;;;;;5088583;28;20036;-75
2023/03/31 13:54:58;;;;;;;5.70;2.22;;;;;;;;;;5085536;28;20074;-76
2023/03/31 13:57:43;;;;;;;6.25;3.25;;;;;;;;;;5089254;28;20478;-77
2023/03/31 14:00:15;;;;;;;5.85;2.30;;;;;;;;;;5089732;28;20071;-76
2023/03/31 14:03:04;;;;;;;6.32;2.63;;;;;;;;;;5096160;28;20055;-75
2023/03/31 14:05:37;;;;;;;8.48;2.35;;;;;;;;;;5079315;28;20044;-74
2023/03/31 14:08:14;;;;;;;6.72;2.70;;;;;;;;;;5082628;28;20040;-74
2023/03/31 14:10:41;;;;;;;7.93;2.35;;;;;;;;;;5080026;28;20490;-75
2023/03/31 14:13:07;;;;;;;5.30;2.45;;;;;;;;;;5096069;28;20041;-75
2023/03/31 14:15:34;;;;;;;5.85;2.50;;;;;;;;;;5096215;28;20454;-75
2023/03/31 14:18:01;;;;;;;7.00;2.53;;;;;;;;;;5096677;28;20040;-75
2023/03/31 14:20:30;;;;;;;4.50;2.45;;;;;;;;;;5096385;28;20135;-75
2023/03/31 14:23:06;;;;;;;5.07;2.30;;;;;;;;;;5093705;28;20163;-74
2023/03/31 14:25:32;;;;;;;5.13;2.40;;;;;;;;;;5093855;28;20040;-75
2023/03/31 14:28:20;;;;;;;5.22;2.20;;;;;;;;;;5093952;28;20048;-75
2023/03/31 14:31:04;;;;;;;6.20;2.20;;;;;;;;;;5096363;28;20046;-75
2023/03/31 14:33:35;;;;;;;6.32;2.35;;;;;;;;;;5096306;28;20044;-76
2023/03/31 14:36:08;;;;;;;4.78;2.20;;;;;;;;;;5096274;28;20035;-76
2023/03/31 14:38:34;;;;;;;7.28;2.67;;;;;;;;;;5088446;28;20063;-76
2023/03/31 14:41:02;;;;;;;5.32;2.60;;;;;;;;;;5079240;28;20044;-76
2023/03/31 14:43:35;;;;;;;4.50;2.22;;;;;;;;;;5084862;28;20052;-76
2023/03/31 14:46:02;;;;;;;4.82;2.20;;;;;;;;;;5097487;28;20058;-76
2023/03/31 14:48:29;;;;;;;4.03;2.08;;;;;;;;;;5097269;28;20506;-75
2023/03/31 14:51:01;;;;;;;3.92;2.00;;;;;;;;;;5094194;28;20119;-76
2023/03/31 14:53:27;;;;;;;5.20;2.40;;;;;;;;;;5081718;28;20044;-76
2023/03/31 14:56:14;;;;;;;3.65;2.00;;;;;;;;;;5077728;28;20465;-75
2023/03/31 14:58:46;;;;;;;3.17;1.65;;;;;;;;;;5079050;28;20043;-75
2023/03/31 15:01:16;;;;;;;4.75;1.70;;;;;;;;;;5095815;28;20486;-75
2023/03/31 15:03:42;;;;;;;3.60;1.70;;;;;;;;;;5099410;28;20700;-76
2023/03/31 15:06:09;;;;;;;4.03;2.00;;;;;;;;;;5082180;28;20458;-76
2023/03/31 15:08:36;;;;;;;4.25;1.70;;;;;;;;;;5082788;28;20054;-76
2023/03/31 15:11:04;;;;;;;5.10;2.42;;;;;;;;;;5090113;28;20499;-76
2023/03/31 15:13:35;;;;;;;4.18;1.98;;;;;;;;;;5074939;28;20044;-76
2023/03/31 15:16:21;;;;;;;4.55;1.90;;;;;;;;;;5087311;28;20048;-75
2023/03/31 15:18:47;;;;;;;5.13;2.00;;;;;;;;;;5091229;28;20092;-75